Schedule Details


Flight Number: CTN700
Departure: Franjo Tudman (LDZA) at 08:00
Arrival: Lisbon (LPPT) at 10:15
Route: KOTOR?UT742?NAKIT?UL615?ROTAR?DCT?BENUS?DCT?IVLOX?DCT?DORAV?DCT?BORDI?UZ185?KOLON?UM984?DIVKO?UN975?BGR?UQ47?ASTRO?UM985?YES?UN747?SVL?UM744?ROSAL?UZ227?EXONA

Weather Information
LDZA 290030Z VRB02KT 9999 -RA SCT007 OVC037 02/01 Q1008 TEMPO -TSRA BKN008 FEW040CB
LPPT 290030Z 20009KT 9999 SCT006 BKN010 14/14 Q1025
Schedule Frequency

Route Map